sensor_id;sensor_type;location;lat;lon;timestamp;temperature;humidity
41630;DHT22;27322;49.488;8.480;2022-12-24T00:01:03;12.40;99.90
41630;DHT22;27322;49.488;8.480;2022-12-24T00:03:29;12.40;99.90
41630;DHT22;27322;49.488;8.480;2022-12-24T00:05:54;12.40;99.90
41630;DHT22;27322;49.488;8.480;2022-12-24T00:08:20;12.50;99.90
41630;DHT22;27322;49.488;8.480;2022-12-24T00:10:52;12.40;99.90
41630;DHT22;27322;49.488;8.480;2022-12-24T00:13:18;12.50;99.90
41630;DHT22;27322;49.488;8.480;2022-12-24T00:15:45;12.40;99.90
41630;DHT22;27322;49.488;8.480;2022-12-24T00:18:10;12.40;99.90
41630;DHT22;27322;49.488;8.480;2022-12-24T00:20:36;12.50;99.90
41630;DHT22;27322;49.488;8.480;2022-12-24T00:23:02;12.40;99.90
41630;DHT22;27322;49.488;8.480;2022-12-24T00:25:27;12.40;99.90
41630;DHT22;27322;49.488;8.480;2022-12-24T00:27:53;12.40;99.90
41630;DHT22;27322;49.488;8.480;2022-12-24T00:30:18;12.40;99.90
41630;DHT22;27322;49.488;8.480;2022-12-24T00:32:44;12.40;99.90
41630;DHT22;27322;49.488;8.480;2022-12-24T00:35:09;12.40;99.90
41630;DHT22;27322;49.488;8.480;2022-12-24T00:37:35;12.40;99.90
41630;DHT22;27322;49.488;8.480;2022-12-24T00:40:01;12.40;99.90
41630;DHT22;27322;49.488;8.480;2022-12-24T00:42:26;12.40;99.90
41630;DHT22;27322;49.488;8.480;2022-12-24T00:44:52;12.40;99.90
41630;DHT22;27322;49.488;8.480;2022-12-24T00:47:17;12.40;99.90
41630;DHT22;27322;49.488;8.480;2022-12-24T00:49:43;12.40;99.90
41630;DHT22;27322;49.488;8.480;2022-12-24T00:52:09;12.30;99.90
41630;DHT22;27322;49.488;8.480;2022-12-24T00:54:34;12.30;99.90
41630;DHT22;27322;49.488;8.480;2022-12-24T00:57:00;12.30;99.90
41630;DHT22;27322;49.488;8.480;2022-12-24T00:59:25;12.30;99.90
41630;DHT22;27322;49.488;8.480;2022-12-24T01:01:51;12.30;99.90
41630;DHT22;27322;49.488;8.480;2022-12-24T01:04:17;12.30;99.90
41630;DHT22;27322;49.488;8.480;2022-12-24T01:07:01;12.30;99.90
41630;DHT22;27322;49.488;8.480;2022-12-24T01:09:26;12.30;99.90
41630;DHT22;27322;49.488;8.480;2022-12-24T01:11:52;12.30;99.90
41630;DHT22;27322;49.488;8.480;2022-12-24T01:14:17;12.20;99.90
41630;DHT22;27322;49.488;8.480;2022-12-24T01:16:43;12.20;99.90
41630;DHT22;27322;49.488;8.480;2022-12-24T01:19:09;12.20;99.90
41630;DHT22;27322;49.488;8.480;2022-12-24T01:21:35;12.20;99.90
41630;DHT22;27322;49.488;8.480;2022-12-24T01:24:00;12.20;99.90
41630;DHT22;27322;49.488;8.480;2022-12-24T01:26:26;12.20;99.90
41630;DHT22;27322;49.488;8.480;2022-12-24T01:28:52;12.20;99.90
41630;DHT22;27322;49.488;8.480;2022-12-24T01:31:18;12.20;99.90
41630;DHT22;27322;49.488;8.480;2022-12-24T01:33:45;12.10;99.90
41630;DHT22;27322;49.488;8.480;2022-12-24T01:36:12;12.10;99.90
41630;DHT22;27322;49.488;8.480;2022-12-24T01:38:38;12.10;99.90
41630;DHT22;27322;49.488;8.480;2022-12-24T01:41:04;12.10;99.90
41630;DHT22;27322;49.488;8.480;2022-12-24T01:43:48;12.10;99.90
41630;DHT22;27322;49.488;8.480;2022-12-24T01:46:22;12.10;99.90
41630;DHT22;27322;49.488;8.480;2022-12-24T01:48:59;12.10;99.90
41630;DHT22;27322;49.488;8.480;2022-12-24T01:51:53;12.10;99.90
41630;DHT22;27322;49.488;8.480;2022-12-24T01:54:27;12.10;99.90
41630;DHT22;27322;49.488;8.480;2022-12-24T01:57:00;12.10;99.90
41630;DHT22;27322;49.488;8.480;2022-12-24T01:59:26;12.10;99.90
41630;DHT22;27322;49.488;8.480;2022-12-24T02:01:53;12.10;99.90
41630;DHT22;27322;49.488;8.480;2022-12-24T02:04:39;12.10;99.90
41630;DHT22;27322;49.488;8.480;2022-12-24T02:07:06;12.00;99.90
41630;DHT22;27322;49.488;8.480;2022-12-24T02:09:33;12.00;99.90
41630;DHT22;27322;49.488;8.480;2022-12-24T02:12:00;12.00;99.90
41630;DHT22;27322;49.488;8.480;2022-12-24T02:14:27;12.00;99.90
41630;DHT22;27322;49.488;8.480;2022-12-24T02:17:09;12.00;99.90
41630;DHT22;27322;49.488;8.480;2022-12-24T02:23:19;12.00;99.90
41630;DHT22;27322;49.488;8.480;2022-12-24T02:34:05;12.00;99.90
41630;DHT22;27322;49.488;8.480;2022-12-24T02:39:34;12.00;99.90
41630;DHT22;27322;49.488;8.480;2022-12-24T02:42:02;12.00;99.90
41630;DHT22;27322;49.488;8.480;2022-12-24T02:44:52;12.00;99.90
41630;DHT22;27322;49.488;8.480;2022-12-24T02:47:22;12.00;99.90
41630;DHT22;27322;49.488;8.480;2022-12-24T02:49:49;12.00;99.90
41630;DHT22;27322;49.488;8.480;2022-12-24T02:52:37;12.00;99.90
41630;DHT22;27322;49.488;8.480;2022-12-24T03:00:26;12.00;99.90
41630;DHT22;27322;49.488;8.480;2022-12-24T03:05:49;12.00;99.90
41630;DHT22;27322;49.488;8.480;2022-12-24T03:11:13;12.00;99.90
41630;DHT22;27322;49.488;8.480;2022-12-24T03:13:40;12.00;99.90
41630;DHT22;27322;49.488;8.480;2022-12-24T03:16:09;12.00;99.90
41630;DHT22;27322;49.488;8.480;2022-12-24T03:18:38;12.00;99.90
41630;DHT22;27322;49.488;8.480;2022-12-24T03:23:33;12.00;99.90
41630;DHT22;27322;49.488;8.480;2022-12-24T03:26:00;12.00;99.90
41630;DHT22;27322;49.488;8.480;2022-12-24T03:28:29;12.00;99.90
41630;DHT22;27322;49.488;8.480;2022-12-24T03:30:55;12.00;99.90
41630;DHT22;27322;49.488;8.480;2022-12-24T03:33:24;12.00;99.90
41630;DHT22;27322;49.488;8.480;2022-12-24T03:35:50;12.00;99.90
41630;DHT22;27322;49.488;8.480;2022-12-24T03:38:16;12.00;99.90
41630;DHT22;27322;49.488;8.480;2022-12-24T03:40:41;12.00;99.90
41630;DHT22;27322;49.488;8.480;2022-12-24T03:43:07;11.90;99.90
41630;DHT22;27322;49.488;8.480;2022-12-24T03:45:33;12.00;99.90
41630;DHT22;27322;49.488;8.480;2022-12-24T03:47:58;12.00;99.90
41630;DHT22;27322;49.488;8.480;2022-12-24T03:50:24;12.00;99.90
41630;DHT22;27322;49.488;8.480;2022-12-24T03:52:50;12.00;99.90
41630;DHT22;27322;49.488;8.480;2022-12-24T03:55:15;12.00;99.90
41630;DHT22;27322;49.488;8.480;2022-12-24T03:57:41;11.90;99.90
41630;DHT22;27322;49.488;8.480;2022-12-24T04:00:07;12.00;99.90
41630;DHT22;27322;49.488;8.480;2022-12-24T04:02:33;12.00;99.90
41630;DHT22;27322;49.488;8.480;2022-12-24T04:04:58;12.00;99.90
41630;DHT22;27322;49.488;8.480;2022-12-24T04:07:24;12.00;99.90
41630;DHT22;27322;49.488;8.480;2022-12-24T04:09:50;12.00;99.90
41630;DHT22;27322;49.488;8.480;2022-12-24T04:12:15;12.00;99.90
41630;DHT22;27322;49.488;8.480;2022-12-24T04:14:41;12.00;99.90
41630;DHT22;27322;49.488;8.480;2022-12-24T04:17:06;12.00;99.90
41630;DHT22;27322;49.488;8.480;2022-12-24T04:19:32;12.00;99.90
41630;DHT22;27322;49.488;8.480;2022-12-24T04:21:57;12.00;99.90
41630;DHT22;27322;49.488;8.480;2022-12-24T04:24:23;12.00;99.90
41630;DHT22;27322;49.488;8.480;2022-12-24T04:26:49;12.00;99.90
41630;DHT22;27322;49.488;8.480;2022-12-24T04:29:14;12.00;99.90
41630;DHT22;27322;49.488;8.480;2022-12-24T04:31:40;12.00;99.90
41630;DHT22;27322;49.488;8.480;2022-12-24T04:34:05;12.00;99.90
41630;DHT22;27322;49.488;8.480;2022-12-24T04:36:31;12.00;99.90
41630;DHT22;27322;49.488;8.480;2022-12-24T04:38:57;12.10;99.90
41630;DHT22;27322;49.488;8.480;2022-12-24T04:41:23;12.00;99.90
41630;DHT22;27322;49.488;8.480;2022-12-24T04:43:50;12.00;99.90
41630;DHT22;27322;49.488;8.480;2022-12-24T04:46:19;12.00;99.90
41630;DHT22;27322;49.488;8.480;2022-12-24T04:48:47;12.10;99.90
41630;DHT22;27322;49.488;8.480;2022-12-24T04:51:14;12.00;99.90
41630;DHT22;27322;49.488;8.480;2022-12-24T04:53:40;12.00;99.90
41630;DHT22;27322;49.488;8.480;2022-12-24T04:56:10;12.00;99.90
41630;DHT22;27322;49.488;8.480;2022-12-24T04:58:36;12.00;99.90
41630;DHT22;27322;49.488;8.480;2022-12-24T05:01:06;12.00;99.90
41630;DHT22;27322;49.488;8.480;2022-12-24T05:03:32;12.00;99.90
41630;DHT22;27322;49.488;8.480;2022-12-24T05:06:06;12.00;99.90
41630;DHT22;27322;49.488;8.480;2022-12-24T05:08:32;12.00;99.90
41630;DHT22;27322;49.488;8.480;2022-12-24T05:10:58;12.00;99.90
41630;DHT22;27322;49.488;8.480;2022-12-24T05:13:25;12.00;99.90
41630;DHT22;27322;49.488;8.480;2022-12-24T05:15:51;12.00;99.90
41630;DHT22;27322;49.488;8.480;2022-12-24T05:18:16;12.00;99.90
41630;DHT22;27322;49.488;8.480;2022-12-24T05:20:42;11.90;99.90
41630;DHT22;27322;49.488;8.480;2022-12-24T05:23:26;11.90;99.90
41630;DHT22;27322;49.488;8.480;2022-12-24T05:26:36;11.90;99.90
41630;DHT22;27322;49.488;8.480;2022-12-24T05:29:04;11.80;99.90
41630;DHT22;27322;49.488;8.480;2022-12-24T05:31:31;11.80;99.90
41630;DHT22;27322;49.488;8.480;2022-12-24T05:33:58;11.80;99.90
41630;DHT22;27322;49.488;8.480;2022-12-24T05:36:23;11.80;99.90
41630;DHT22;27322;49.488;8.480;2022-12-24T05:38:49;11.70;99.90
41630;DHT22;27322;49.488;8.480;2022-12-24T05:41:15;11.70;99.90
41630;DHT22;27322;49.488;8.480;2022-12-24T05:43:41;11.70;99.90
41630;DHT22;27322;49.488;8.480;2022-12-24T05:46:09;11.60;99.90
41630;DHT22;27322;49.488;8.480;2022-12-24T05:48:35;11.60;99.90
41630;DHT22;27322;49.488;8.480;2022-12-24T05:51:05;11.50;99.90
41630;DHT22;27322;49.488;8.480;2022-12-24T05:53:32;11.60;99.90
41630;DHT22;27322;49.488;8.480;2022-12-24T05:56:08;11.50;99.90
41630;DHT22;27322;49.488;8.480;2022-12-24T05:58:34;11.50;99.90
41630;DHT22;27322;49.488;8.480;2022-12-24T06:01:01;11.40;99.90
41630;DHT22;27322;49.488;8.480;2022-12-24T06:03:28;11.40;99.90
41630;DHT22;27322;49.488;8.480;2022-12-24T06:06:09;11.40;99.90
41630;DHT22;27322;49.488;8.480;2022-12-24T06:08:36;11.30;99.90
41630;DHT22;27322;49.488;8.480;2022-12-24T06:11:04;11.40;99.90
41630;DHT22;27322;49.488;8.480;2022-12-24T06:13:30;11.30;99.90
41630;DHT22;27322;49.488;8.480;2022-12-24T06:15:57;11.30;99.90
41630;DHT22;27322;49.488;8.480;2022-12-24T06:18:23;11.30;99.90
41630;DHT22;27322;49.488;8.480;2022-12-24T06:20:53;11.30;99.90
41630;DHT22;27322;49.488;8.480;2022-12-24T06:23:20;11.30;99.90
41630;DHT22;27322;49.488;8.480;2022-12-24T06:25:46;11.30;99.90
41630;DHT22;27322;49.488;8.480;2022-12-24T06:28:12;11.30;99.90
41630;DHT22;27322;49.488;8.480;2022-12-24T06:30:37;11.30;99.90
41630;DHT22;27322;49.488;8.480;2022-12-24T06:33:03;11.30;99.90
41630;DHT22;27322;49.488;8.480;2022-12-24T06:35:30;11.30;99.90
41630;DHT22;27322;49.488;8.480;2022-12-24T06:37:56;11.40;99.90
41630;DHT22;27322;49.488;8.480;2022-12-24T06:40:22;11.40;99.90
41630;DHT22;27322;49.488;8.480;2022-12-24T06:42:47;11.40;99.90
41630;DHT22;27322;49.488;8.480;2022-12-24T06:45:13;11.40;99.90
41630;DHT22;27322;49.488;8.480;2022-12-24T06:47:38;11.40;99.90
41630;DHT22;27322;49.488;8.480;2022-12-24T06:50:05;11.40;99.90
41630;DHT22;27322;49.488;8.480;2022-12-24T06:52:30;11.40;99.90
41630;DHT22;27322;49.488;8.480;2022-12-24T06:54:56;11.40;99.90
41630;DHT22;27322;49.488;8.480;2022-12-24T06:57:21;11.40;99.90
41630;DHT22;27322;49.488;8.480;2022-12-24T06:59:47;11.40;99.90
41630;DHT22;27322;49.488;8.480;2022-12-24T07:02:12;11.40;99.90
41630;DHT22;27322;49.488;8.480;2022-12-24T07:04:38;11.40;99.90
41630;DHT22;27322;49.488;8.480;2022-12-24T07:07:04;11.50;99.90
41630;DHT22;27322;49.488;8.480;2022-12-24T07:09:30;11.40;99.90
41630;DHT22;27322;49.488;8.480;2022-12-24T07:11:56;11.50;99.90
41630;DHT22;27322;49.488;8.480;2022-12-24T07:14:21;11.50;99.90
41630;DHT22;27322;49.488;8.480;2022-12-24T07:16:47;11.50;99.90
41630;DHT22;27322;49.488;8.480;2022-12-24T07:19:13;11.50;99.90
41630;DHT22;27322;49.488;8.480;2022-12-24T07:21:39;11.50;99.90
41630;DHT22;27322;49.488;8.480;2022-12-24T07:24:05;11.50;99.90
41630;DHT22;27322;49.488;8.480;2022-12-24T07:26:30;11.50;99.90
41630;DHT22;27322;49.488;8.480;2022-12-24T07:28:56;11.50;99.90
41630;DHT22;27322;49.488;8.480;2022-12-24T07:31:22;11.50;99.90
41630;DHT22;27322;49.488;8.480;2022-12-24T07:33:48;11.50;99.90
41630;DHT22;27322;49.488;8.480;2022-12-24T07:36:19;11.50;99.90
41630;DHT22;27322;49.488;8.480;2022-12-24T07:38:45;11.50;99.90
41630;DHT22;27322;49.488;8.480;2022-12-24T07:41:11;11.50;99.90
41630;DHT22;27322;49.488;8.480;2022-12-24T07:43:37;11.50;99.90
41630;DHT22;27322;49.488;8.480;2022-12-24T07:46:02;11.50;99.90
41630;DHT22;27322;49.488;8.480;2022-12-24T07:48:29;11.50;99.90
41630;DHT22;27322;49.488;8.480;2022-12-24T07:50:56;11.50;99.90
41630;DHT22;27322;49.488;8.480;2022-12-24T07:53:22;11.50;99.90
41630;DHT22;27322;49.488;8.480;2022-12-24T07:55:47;11.50;99.90
41630;DHT22;27322;49.488;8.480;2022-12-24T07:58:13;11.60;99.90
41630;DHT22;27322;49.488;8.480;2022-12-24T08:00:39;11.50;99.90
41630;DHT22;27322;49.488;8.480;2022-12-24T08:03:04;11.50;99.90
41630;DHT22;27322;49.488;8.480;2022-12-24T08:05:35;11.50;99.90
41630;DHT22;27322;49.488;8.480;2022-12-24T08:08:03;11.60;99.90
41630;DHT22;27322;49.488;8.480;2022-12-24T08:10:29;11.60;99.90
41630;DHT22;27322;49.488;8.480;2022-12-24T08:12:55;11.60;99.90
41630;DHT22;27322;49.488;8.480;2022-12-24T08:15:20;11.60;99.90
41630;DHT22;27322;49.488;8.480;2022-12-24T08:17:46;11.60;99.90
41630;DHT22;27322;49.488;8.480;2022-12-24T08:20:11;11.60;99.90
41630;DHT22;27322;49.488;8.480;2022-12-24T08:22:37;11.70;99.90
41630;DHT22;27322;49.488;8.480;2022-12-24T08:25:03;11.60;99.90
41630;DHT22;27322;49.488;8.480;2022-12-24T08:27:28;11.60;99.90
41630;DHT22;27322;49.488;8.480;2022-12-24T08:29:54;11.70;99.90
41630;DHT22;27322;49.488;8.480;2022-12-24T08:32:20;11.70;99.90
41630;DHT22;27322;49.488;8.480;2022-12-24T08:34:45;11.70;99.90
41630;DHT22;27322;49.488;8.480;2022-12-24T08:37:11;11.70;99.90
41630;DHT22;27322;49.488;8.480;2022-12-24T08:39:36;11.70;99.90
41630;DHT22;27322;49.488;8.480;2022-12-24T08:42:02;11.80;99.90
41630;DHT22;27322;49.488;8.480;2022-12-24T08:44:28;11.80;99.90
41630;DHT22;27322;49.488;8.480;2022-12-24T08:46:53;11.80;99.90
41630;DHT22;27322;49.488;8.480;2022-12-24T08:49:19;11.80;99.90
41630;DHT22;27322;49.488;8.480;2022-12-24T08:51:45;11.80;99.90
41630;DHT22;27322;49.488;8.480;2022-12-24T08:54:10;11.80;99.90
41630;DHT22;27322;49.488;8.480;2022-12-24T08:56:36;11.80;99.90
41630;DHT22;27322;49.488;8.480;2022-12-24T08:59:01;11.80;99.90
41630;DHT22;27322;49.488;8.480;2022-12-24T09:01:27;11.90;99.90
41630;DHT22;27322;49.488;8.480;2022-12-24T09:03:52;11.90;99.90
41630;DHT22;27322;49.488;8.480;2022-12-24T09:06:18;11.90;99.90
41630;DHT22;27322;49.488;8.480;2022-12-24T09:08:44;11.90;99.90
41630;DHT22;27322;49.488;8.480;2022-12-24T09:11:15;11.90;99.90
41630;DHT22;27322;49.488;8.480;2022-12-24T09:13:41;11.90;99.90
41630;DHT22;27322;49.488;8.480;2022-12-24T09:16:08;12.00;99.90
41630;DHT22;27322;49.488;8.480;2022-12-24T09:18:34;12.00;99.90
41630;DHT22;27322;49.488;8.480;2022-12-24T09:21:08;12.00;99.90
41630;DHT22;27322;49.488;8.480;2022-12-24T09:23:37;12.00;99.90
41630;DHT22;27322;49.488;8.480;2022-12-24T09:26:11;12.10;99.90
41630;DHT22;27322;49.488;8.480;2022-12-24T09:28:37;12.10;99.90
41630;DHT22;27322;49.488;8.480;2022-12-24T09:31:04;12.10;99.90
41630;DHT22;27322;49.488;8.480;2022-12-24T09:33:33;12.10;99.90
41630;DHT22;27322;49.488;8.480;2022-12-24T09:35:59;12.20;99.90
41630;DHT22;27322;49.488;8.480;2022-12-24T09:38:25;12.20;99.90
41630;DHT22;27322;49.488;8.480;2022-12-24T09:40:51;12.20;99.90
41630;DHT22;27322;49.488;8.480;2022-12-24T09:43:20;12.30;99.90
41630;DHT22;27322;49.488;8.480;2022-12-24T09:48:25;12.30;99.90
41630;DHT22;27322;49.488;8.480;2022-12-24T09:50:53;12.30;99.90
41630;DHT22;27322;49.488;8.480;2022-12-24T09:53:39;12.40;99.90
41630;DHT22;27322;49.488;8.480;2022-12-24T09:56:15;12.40;99.90
41630;DHT22;27322;49.488;8.480;2022-12-24T09:58:45;12.40;99.90
41630;DHT22;27322;49.488;8.480;2022-12-24T10:01:13;12.40;99.90
41630;DHT22;27322;49.488;8.480;2022-12-24T10:03:40;12.50;99.90
41630;DHT22;27322;49.488;8.480;2022-12-24T10:11:53;12.60;99.90
41630;DHT22;27322;49.488;8.480;2022-12-24T10:14:42;12.60;99.90
41630;DHT22;27322;49.488;8.480;2022-12-24T10:20:07;12.70;99.90
41630;DHT22;27322;49.488;8.480;2022-12-24T10:28:58;12.70;99.90
41630;DHT22;27322;49.488;8.480;2022-12-24T10:31:28;12.70;99.90
41630;DHT22;27322;49.488;8.480;2022-12-24T10:34:03;12.70;99.90
41630;DHT22;27322;49.488;8.480;2022-12-24T10:36:31;12.70;99.90
41630;DHT22;27322;49.488;8.480;2022-12-24T10:38:58;12.70;99.90
41630;DHT22;27322;49.488;8.480;2022-12-24T10:41:25;12.70;99.90
41630;DHT22;27322;49.488;8.480;2022-12-24T10:43:51;12.80;99.90
41630;DHT22;27322;49.488;8.480;2022-12-24T10:46:20;12.80;99.90
41630;DHT22;27322;49.488;8.480;2022-12-24T10:48:59;12.80;99.90
41630;DHT22;27322;49.488;8.480;2022-12-24T10:54:16;12.80;99.90
41630;DHT22;27322;49.488;8.480;2022-12-24T10:56:45;12.80;99.90
41630;DHT22;27322;49.488;8.480;2022-12-24T11:02:25;12.80;99.90
41630;DHT22;27322;49.488;8.480;2022-12-24T11:04:50;12.80;99.90
41630;DHT22;27322;49.488;8.480;2022-12-24T11:07:22;12.90;99.90
41630;DHT22;27322;49.488;8.480;2022-12-24T11:10:03;12.90;99.90
41630;DHT22;27322;49.488;8.480;2022-12-24T11:12:32;12.90;99.90
41630;DHT22;27322;49.488;8.480;2022-12-24T11:15:06;12.90;99.90
41630;DHT22;27322;49.488;8.480;2022-12-24T11:17:40;12.90;99.90
41630;DHT22;27322;49.488;8.480;2022-12-24T11:20:16;12.90;99.90
41630;DHT22;27322;49.488;8.480;2022-12-24T11:22:48;12.90;99.90
41630;DHT22;27322;49.488;8.480;2022-12-24T11:25:24;12.90;99.90
41630;DHT22;27322;49.488;8.480;2022-12-24T11:27:53;12.90;99.90
41630;DHT22;27322;49.488;8.480;2022-12-24T11:30:25;12.90;99.90
41630;DHT22;27322;49.488;8.480;2022-12-24T11:35:26;13.00;99.90
41630;DHT22;27322;49.488;8.480;2022-12-24T11:40:43;13.00;99.90
41630;DHT22;27322;49.488;8.480;2022-12-24T11:43:18;13.00;99.90
41630;DHT22;27322;49.488;8.480;2022-12-24T11:45:53;13.00;99.90
41630;DHT22;27322;49.488;8.480;2022-12-24T11:51:05;13.00;99.90
41630;DHT22;27322;49.488;8.480;2022-12-24T11:53:43;13.00;99.90
41630;DHT22;27322;49.488;8.480;2022-12-24T11:56:36;13.00;99.90
41630;DHT22;27322;49.488;8.480;2022-12-24T12:01:55;13.00;99.90
41630;DHT22;27322;49.488;8.480;2022-12-24T12:04:32;13.00;99.90
41630;DHT22;27322;49.488;8.480;2022-12-24T12:07:00;13.00;99.90
41630;DHT22;27322;49.488;8.480;2022-12-24T12:09:30;13.00;99.90
41630;DHT22;27322;49.488;8.480;2022-12-24T12:12:06;13.00;99.90
41630;DHT22;27322;49.488;8.480;2022-12-24T12:14:45;13.10;99.90
41630;DHT22;27322;49.488;8.480;2022-12-24T12:28:34;13.10;99.90
41630;DHT22;27322;49.488;8.480;2022-12-24T12:33:38;13.10;99.90
41630;DHT22;27322;49.488;8.480;2022-12-24T12:36:07;13.20;99.90
41630;DHT22;27322;49.488;8.480;2022-12-24T12:38:33;13.10;99.90
41630;DHT22;27322;49.488;8.480;2022-12-24T12:46:20;13.20;99.90
41630;DHT22;27322;49.488;8.480;2022-12-24T12:51:32;13.20;99.90
41630;DHT22;27322;49.488;8.480;2022-12-24T12:54:58;13.20;99.90
41630;DHT22;27322;49.488;8.480;2022-12-24T12:56:56;13.20;99.90
41630;DHT22;27322;49.488;8.480;2022-12-24T12:59:30;13.20;99.90
41630;DHT22;27322;49.488;8.480;2022-12-24T13:05:16;13.20;99.90
41630;DHT22;27322;49.488;8.480;2022-12-24T13:10:40;13.20;99.90
41630;DHT22;27322;49.488;8.480;2022-12-24T13:21:28;13.10;99.90
41630;DHT22;27322;49.488;8.480;2022-12-24T13:26:39;13.10;99.90
41630;DHT22;27322;49.488;8.480;2022-12-24T13:29:29;13.00;99.90
41630;DHT22;27322;49.488;8.480;2022-12-24T13:34:56;13.00;99.90
41630;DHT22;27322;49.488;8.480;2022-12-24T13:37:33;13.00;99.90
41630;DHT22;27322;49.488;8.480;2022-12-24T13:42:50;13.00;99.90
41630;DHT22;27322;49.488;8.480;2022-12-24T13:48:02;12.90;99.90
41630;DHT22;27322;49.488;8.480;2022-12-24T13:50:54;12.90;99.90
41630;DHT22;27322;49.488;8.480;2022-12-24T13:53:33;12.90;99.90
41630;DHT22;27322;49.488;8.480;2022-12-24T13:58:43;12.90;99.90
41630;DHT22;27322;49.488;8.480;2022-12-24T14:01:11;12.80;99.90
41630;DHT22;27322;49.488;8.480;2022-12-24T14:03:55;12.80;99.90
41630;DHT22;27322;49.488;8.480;2022-12-24T14:06:33;12.80;99.90
41630;DHT22;27322;49.488;8.480;2022-12-24T14:09:12;12.80;99.90
41630;DHT22;27322;49.488;8.480;2022-12-24T14:14:34;12.80;99.90
41630;DHT22;27322;49.488;8.480;2022-12-24T14:17:12;12.80;99.90
41630;DHT22;27322;49.488;8.480;2022-12-24T14:19:51;12.80;99.90
41630;DHT22;27322;49.488;8.480;2022-12-24T14:22:33;12.80;99.90
41630;DHT22;27322;49.488;8.480;2022-12-24T14:27:44;12.70;99.90
41630;DHT22;27322;49.488;8.480;2022-12-24T14:32:43;12.70;99.90
41630;DHT22;27322;49.488;8.480;2022-12-24T14:37:40;12.70;99.90
41630;DHT22;27322;49.488;8.480;2022-12-24T14:40:07;12.70;99.90
41630;DHT22;27322;49.488;8.480;2022-12-24T14:42:53;12.60;99.90
41630;DHT22;27322;49.488;8.480;2022-12-24T14:45:31;12.60;99.90
41630;DHT22;27322;49.488;8.480;2022-12-24T15:05:14;12.50;99.90
41630;DHT22;27322;49.488;8.480;2022-12-24T15:08:03;12.50;99.90
41630;DHT22;27322;49.488;8.480;2022-12-24T15:10:40;12.50;99.90
41630;DHT22;27322;49.488;8.480;2022-12-24T15:13:38;12.50;99.90
41630;DHT22;27322;49.488;8.480;2022-12-24T15:16:08;12.50;99.90
41630;DHT22;27322;49.488;8.480;2022-12-24T15:18:36;12.40;99.90
41630;DHT22;27322;49.488;8.480;2022-12-24T15:21:04;12.40;99.90
41630;DHT22;27322;49.488;8.480;2022-12-24T15:23:34;12.40;99.90
41630;DHT22;27322;49.488;8.480;2022-12-24T15:26:15;12.40;99.90
41630;DHT22;27322;49.488;8.480;2022-12-24T15:28:41;12.40;99.90
41630;DHT22;27322;49.488;8.480;2022-12-24T15:31:21;12.40;99.90
41630;DHT22;27322;49.488;8.480;2022-12-24T15:33:49;12.40;99.90
41630;DHT22;27322;49.488;8.480;2022-12-24T15:36:23;12.40;99.90
41630;DHT22;27322;49.488;8.480;2022-12-24T15:38:52;12.40;99.90
41630;DHT22;27322;49.488;8.480;2022-12-24T15:41:21;12.40;99.90
41630;DHT22;27322;49.488;8.480;2022-12-24T15:43:49;12.40;99.90
41630;DHT22;27322;49.488;8.480;2022-12-24T15:46:21;12.40;99.90
41630;DHT22;27322;49.488;8.480;2022-12-24T15:48:48;12.40;99.90
41630;DHT22;27322;49.488;8.480;2022-12-24T15:51:20;12.40;99.90
41630;DHT22;27322;49.488;8.480;2022-12-24T15:53:49;12.30;99.90
41630;DHT22;27322;49.488;8.480;2022-12-24T15:56:33;12.30;99.90
41630;DHT22;27322;49.488;8.480;2022-12-24T16:01:43;12.30;99.90
41630;DHT22;27322;49.488;8.480;2022-12-24T16:04:35;12.30;99.90
41630;DHT22;27322;49.488;8.480;2022-12-24T16:07:02;12.30;99.90
41630;DHT22;27322;49.488;8.480;2022-12-24T16:09:42;12.30;99.90
41630;DHT22;27322;49.488;8.480;2022-12-24T16:12:22;12.20;99.90
41630;DHT22;27322;49.488;8.480;2022-12-24T16:14:55;12.20;99.90
41630;DHT22;27322;49.488;8.480;2022-12-24T16:17:32;12.20;99.90
41630;DHT22;27322;49.488;8.480;2022-12-24T16:20:04;12.20;99.90
41630;DHT22;27322;49.488;8.480;2022-12-24T16:22:31;12.20;99.90
41630;DHT22;27322;49.488;8.480;2022-12-24T16:25:20;12.20;99.90
41630;DHT22;27322;49.488;8.480;2022-12-24T16:27:48;12.20;99.90
41630;DHT22;27322;49.488;8.480;2022-12-24T16:30:14;12.20;99.90
41630;DHT22;27322;49.488;8.480;2022-12-24T16:32:40;12.20;99.90
41630;DHT22;27322;49.488;8.480;2022-12-24T16:35:26;12.20;99.90
41630;DHT22;27322;49.488;8.480;2022-12-24T16:37:52;12.20;99.90
41630;DHT22;27322;49.488;8.480;2022-12-24T16:40:18;12.10;99.90
41630;DHT22;27322;49.488;8.480;2022-12-24T16:42:44;12.10;99.90
41630;DHT22;27322;49.488;8.480;2022-12-24T16:45:29;12.10;99.90
41630;DHT22;27322;49.488;8.480;2022-12-24T16:47:59;12.10;99.90
41630;DHT22;27322;49.488;8.480;2022-12-24T16:50:24;12.00;99.90
41630;DHT22;27322;49.488;8.480;2022-12-24T16:52:51;12.00;99.90
41630;DHT22;27322;49.488;8.480;2022-12-24T16:55:16;12.00;99.90
41630;DHT22;27322;49.488;8.480;2022-12-24T16:57:42;12.00;99.90
41630;DHT22;27322;49.488;8.480;2022-12-24T17:00:17;11.90;99.90
41630;DHT22;27322;49.488;8.480;2022-12-24T17:02:45;11.90;99.90
41630;DHT22;27322;49.488;8.480;2022-12-24T17:05:11;11.90;99.90
41630;DHT22;27322;49.488;8.480;2022-12-24T17:07:37;11.90;99.90
41630;DHT22;27322;49.488;8.480;2022-12-24T17:10:03;11.90;99.90
41630;DHT22;27322;49.488;8.480;2022-12-24T17:12:29;11.90;99.90
41630;DHT22;27322;49.488;8.480;2022-12-24T17:14:55;11.80;99.90
41630;DHT22;27322;49.488;8.480;2022-12-24T17:17:26;11.90;99.90
41630;DHT22;27322;49.488;8.480;2022-12-24T17:19:53;11.80;99.90
41630;DHT22;27322;49.488;8.480;2022-12-24T17:22:18;11.80;99.90
41630;DHT22;27322;49.488;8.480;2022-12-24T17:24:44;11.80;99.90
41630;DHT22;27322;49.488;8.480;2022-12-24T17:27:10;11.70;99.90
41630;DHT22;27322;49.488;8.480;2022-12-24T17:29:36;11.70;99.90
41630;DHT22;27322;49.488;8.480;2022-12-24T17:32:02;11.70;99.90
41630;DHT22;27322;49.488;8.480;2022-12-24T17:34:28;11.70;99.90
41630;DHT22;27322;49.488;8.480;2022-12-24T17:36:53;11.70;99.90
41630;DHT22;27322;49.488;8.480;2022-12-24T17:39:19;11.60;99.90
41630;DHT22;27322;49.488;8.480;2022-12-24T17:41:45;11.70;99.90
41630;DHT22;27322;49.488;8.480;2022-12-24T17:44:14;11.60;99.90
41630;DHT22;27322;49.488;8.480;2022-12-24T17:46:40;11.60;99.90
41630;DHT22;27322;49.488;8.480;2022-12-24T17:49:06;11.60;99.90
41630;DHT22;27322;49.488;8.480;2022-12-24T17:51:32;11.60;99.90
41630;DHT22;27322;49.488;8.480;2022-12-24T17:53:59;11.50;99.90
41630;DHT22;27322;49.488;8.480;2022-12-24T17:56:25;11.60;99.90
41630;DHT22;27322;49.488;8.480;2022-12-24T17:58:51;11.50;99.90
41630;DHT22;27322;49.488;8.480;2022-12-24T18:01:20;11.50;99.90
41630;DHT22;27322;49.488;8.480;2022-12-24T18:03:47;11.50;99.90
41630;DHT22;27322;49.488;8.480;2022-12-24T18:06:13;11.50;99.90